| time (UTC) | temp F | wind direction | speed knots | gust knots | rain 1hr in | rain 24hr in | rain mn in | humidity % | barometer mb |
| 20260507223005 | 49 | 163 | 0.0 | 0.0 | 0.00 | 0.00 | 0.00 | 82 | 1017.2 |
| 20260507220505 | 51 | 163 | 0.0 | 0.0 | 0.00 | 0.00 | 0.00 | 81 | 1017.2 |
| 20260507213005 | 52 | 140 | 0.0 | 2.6 | 0.00 | 0.00 | 0.00 | 79 | 1017.3 |
| 20260507203504 | 53 | 188 | 0.0 | 0.0 | 0.00 | 0.00 | 0.00 | 77 | 1016.8 |
| 20260507203005 | 53 | 188 | 0.0 | 0.0 | 0.00 | 0.00 | 0.00 | 77 | 1016.7 |
| 20260507200005 | 53 | 188 | 0.0 | 0.0 | 0.00 | 0.00 | 0.00 | 74 | 1016.3 |
| 20260507193505 | 54 | 188 | 0.0 | 0.0 | 0.00 | 0.00 | 0.00 | 72 | 1016.1 |
| 20260507193005 | 55 | 188 | 0.0 | 1.7 | 0.00 | 0.00 | 0.00 | 72 | 1016.1 |
| 20260507190505 | 56 | 191 | 0.0 | 0.0 | 0.00 | 0.00 | 0.00 | 70 | 1016.1 |
| 20260507190006 | 56 | 191 | 0.0 | 0.9 | 0.00 | 0.00 | 0.00 | 70 | 1016.0 |
| 20260507183005 | 57 | 188 | 0.9 | 6.1 | 0.00 | 0.00 | 0.00 | 66 | 1016.0 |
| 20260507173505 | 58 | 214 | 0.9 | 6.1 | 0.00 | 0.00 | 0.00 | 59 | 1015.7 |
| 20260507173005 | 58 | 105 | 0.0 | 10.4 | 0.00 | 0.00 | 0.00 | 58 | 1015.7 |
| 20260507170505 | 58 | 147 | 2.6 | 8.7 | 0.00 | 0.00 | 0.00 | 59 | 1015.8 |
| 20260507163504 | 58 | 114 | 0.9 | 5.2 | 0.00 | 0.00 | 0.00 | 59 | 1015.8 |
| 20260507163005 | 58 | 190 | 0.9 | 10.4 | 0.00 | 0.00 | 0.00 | 60 | 1015.8 |
| 20260507160505 | 58 | 144 | 1.7 | 7.0 | 0.00 | 0.00 | 0.00 | 60 | 1015.8 |
| 20260507150005 | 59 | 178 | 0.0 | 5.2 | 0.00 | 0.00 | 0.00 | 58 | 1015.7 |
| 20260507143505 | 59 | 205 | 0.9 | 7.8 | 0.00 | 0.00 | 0.00 | 56 | 1015.8 |
| 20260507140006 | 60 | 171 | 0.9 | 4.3 | 0.00 | 0.00 | 0.00 | 53 | 1015.9 |
| 20260507133505 | 60 | 152 | 0.9 | 4.3 | 0.00 | 0.00 | 0.00 | 48 | 1016.0 |
| 20260507133005 | 60 | 71 | 0.0 | 2.6 | 0.00 | 0.00 | 0.00 | 46 | 1016.0 |
| 20260507130004 | 62 | 55 | 0.9 | 4.3 | 0.00 | 0.00 | 0.00 | 50 | 1016.2 |
| 20260507120505 | 58 | 152 | 0.9 | 4.3 | 0.00 | 0.00 | 0.00 | 58 | 1016.6 |
| 20260507110504 | 57 | 165 | 0.0 | 7.0 | 0.00 | 0.00 | 0.00 | 63 | 1016.6 |
| 20260507110005 | 56 | 156 | 1.7 | 5.2 | 0.00 | 0.00 | 0.00 | 63 | 1016.6 |
| 20260507103504 | 55 | 198 | 0.0 | 2.6 | 0.00 | 0.00 | 0.00 | 62 | 1016.8 |
| 20260507100504 | 55 | 213 | 0.0 | 1.7 | 0.00 | 0.00 | 0.00 | 62 | 1016.8 |
| 20260507093004 | 56 | 180 | 0.0 | 2.6 | 0.00 | 0.00 | 0.00 | 62 | 1016.6 |
| 20260507090504 | 55 | 162 | 0.0 | 0.9 | 0.00 | 0.00 | 0.00 | 67 | 1016.6 |
| 20260507083503 | 54 | 187 | 0.0 | 2.6 | 0.00 | 0.00 | 0.00 | 71 | 1016.7 |
| 20260507083004 | 54 | 101 | 0.0 | 2.6 | 0.00 | 0.00 | 0.00 | 72 | 1016.7 |
| 20260507080004 | 53 | 177 | 0.9 | 5.2 | 0.00 | 0.00 | 0.00 | 76 | 1016.7 |
| 20260507073504 | 51 | 187 | 0.9 | 4.3 | 0.00 | 0.00 | 0.00 | 81 | 1016.5 |
| 20260507073004 | 50 | 174 | 0.9 | 6.1 | 0.00 | 0.00 | 0.00 | 84 | 1016.6 |
| 20260507063003 | 44 | 15 | 0.0 | 0.0 | 0.00 | 0.00 | 0.00 | 93 | 1016.4 |
| 20260507053503 | 41 | 15 | 0.0 | 0.0 | 0.00 | 0.00 | 0.00 | 91 | 1016.1 |
| 20260507050004 | 41 | 15 | 0.0 | 0.0 | 0.00 | 0.00 | 0.00 | 89 | 1016.1 |
| 20260507043504 | 41 | 15 | 0.0 | 0.0 | 0.00 | 0.00 | 0.00 | 89 | 1016.0 |
| 20260507040004 | 42 | 15 | 0.0 | 0.0 | 0.00 | 0.00 | 0.00 | 88 | 1015.9 |
| 20260507033005 | 43 | 15 | 0.0 | 0.0 | 0.00 | 0.00 | 0.00 | 87 | 1015.9 |
| 20260507030506 | 44 | 15 | 0.0 | 0.0 | 0.00 | 0.00 | 0.00 | 86 | 1015.9 |
| 20260507023005 | 45 | 15 | 0.0 | 0.0 | 0.00 | 0.00 | 0.00 | 85 | 1015.9 |
| 20260507020505 | 46 | 15 | 0.0 | 0.0 | 0.00 | 0.00 | 0.00 | 85 | 1015.7 |
| 20260507020005 | 46 | 15 | 0.0 | 0.0 | 0.00 | 0.00 | 0.00 | 85 | 1015.6 |
| 20260507013506 | 46 | 15 | 0.0 | 0.0 | 0.00 | 0.00 | 0.00 | 84 | 1015.6 |
| 20260507013005 | 46 | 15 | 0.0 | 0.0 | 0.00 | 0.00 | 0.00 | 84 | 1015.7 |
| 20260507010005 | 46 | 15 | 0.0 | 0.0 | 0.00 | 0.00 | 0.00 | 82 | 1015.6 |
| 20260507003505 | 47 | 15 | 0.0 | 0.0 | 0.00 | 0.00 | 0.00 | 80 | 1015.5 |
| 20260507000505 | 49 | 15 | 0.0 | 0.0 | 0.00 | 0.00 | 0.00 | 77 | 1015.6 |
| 20260506233005 | 50 | 15 | 0.0 | 0.0 | 0.00 | 0.00 | 0.00 | 74 | 1015.4 |
| 20260506230505 | 51 | 15 | 0.0 | 0.0 | 0.00 | 0.00 | 0.00 | 72 | 1015.4 |
| 20260506230005 | 51 | 15 | 0.0 | 0.0 | 0.00 | 0.00 | 0.00 | 72 | 1015.4 |